sensor_id;sensor_type;location;lat;lon;timestamp;P1;durP1;ratioP1;P2;durP2;ratioP2
23258;SDS011;11798;51.528;7.240;2022-07-23T00:00:14;11.47;;;8.20;;
23258;SDS011;11798;51.528;7.240;2022-07-23T00:02:40;11.83;;;8.43;;
23258;SDS011;11798;51.528;7.240;2022-07-23T00:05:06;12.53;;;8.60;;
23258;SDS011;11798;51.528;7.240;2022-07-23T00:07:32;15.70;;;8.77;;
23258;SDS011;11798;51.528;7.240;2022-07-23T00:09:57;12.70;;;8.40;;
23258;SDS011;11798;51.528;7.240;2022-07-23T00:12:23;13.70;;;8.33;;
23258;SDS011;11798;51.528;7.240;2022-07-23T00:14:49;13.20;;;9.67;;
23258;SDS011;11798;51.528;7.240;2022-07-23T00:17:14;16.33;;;9.10;;
23258;SDS011;11798;51.528;7.240;2022-07-23T00:19:40;14.73;;;9.87;;
23258;SDS011;11798;51.528;7.240;2022-07-23T00:22:05;10.97;;;8.93;;
23258;SDS011;11798;51.528;7.240;2022-07-23T00:24:31;13.57;;;9.20;;
23258;SDS011;11798;51.528;7.240;2022-07-23T00:26:56;12.53;;;9.23;;
23258;SDS011;11798;51.528;7.240;2022-07-23T00:29:22;11.77;;;9.27;;
23258;SDS011;11798;51.528;7.240;2022-07-23T00:31:48;10.70;;;9.30;;
23258;SDS011;11798;51.528;7.240;2022-07-23T00:34:13;17.63;;;10.53;;
23258;SDS011;11798;51.528;7.240;2022-07-23T00:36:39;13.10;;;9.63;;
23258;SDS011;11798;51.528;7.240;2022-07-23T00:39:04;14.93;;;10.77;;
23258;SDS011;11798;51.528;7.240;2022-07-23T00:41:30;12.37;;;10.33;;
23258;SDS011;11798;51.528;7.240;2022-07-23T00:43:56;14.77;;;10.43;;
23258;SDS011;11798;51.528;7.240;2022-07-23T00:46:49;16.23;;;10.53;;
23258;SDS011;11798;51.528;7.240;2022-07-23T00:49:22;13.80;;;11.53;;
23258;SDS011;11798;51.528;7.240;2022-07-23T00:51:53;13.67;;;11.03;;
23258;SDS011;11798;51.528;7.240;2022-07-23T00:54:19;14.50;;;10.67;;
23258;SDS011;11798;51.528;7.240;2022-07-23T00:56:48;15.30;;;10.53;;
23258;SDS011;11798;51.528;7.240;2022-07-23T00:59:14;13.57;;;10.50;;
23258;SDS011;11798;51.528;7.240;2022-07-23T01:01:39;16.60;;;11.63;;
23258;SDS011;11798;51.528;7.240;2022-07-23T01:04:06;15.20;;;10.87;;
23258;SDS011;11798;51.528;7.240;2022-07-23T01:06:34;15.47;;;10.80;;
23258;SDS011;11798;51.528;7.240;2022-07-23T01:09:02;14.53;;;10.77;;
23258;SDS011;11798;51.528;7.240;2022-07-23T01:11:28;14.77;;;10.50;;
23258;SDS011;11798;51.528;7.240;2022-07-23T01:13:56;13.80;;;10.73;;
23258;SDS011;11798;51.528;7.240;2022-07-23T01:16:21;15.67;;;11.53;;
23258;SDS011;11798;51.528;7.240;2022-07-23T01:18:47;13.97;;;11.37;;
23258;SDS011;11798;51.528;7.240;2022-07-23T01:21:13;16.57;;;11.60;;
23258;SDS011;11798;51.528;7.240;2022-07-23T01:23:42;17.87;;;12.10;;
23258;SDS011;11798;51.528;7.240;2022-07-23T01:26:08;13.70;;;11.30;;
23258;SDS011;11798;51.528;7.240;2022-07-23T01:28:33;14.87;;;12.23;;
23258;SDS011;11798;51.528;7.240;2022-07-23T01:30:59;13.70;;;11.60;;
23258;SDS011;11798;51.528;7.240;2022-07-23T01:33:25;16.50;;;12.13;;
23258;SDS011;11798;51.528;7.240;2022-07-23T01:35:50;17.37;;;12.60;;
23258;SDS011;11798;51.528;7.240;2022-07-23T01:38:16;15.30;;;11.73;;
23258;SDS011;11798;51.528;7.240;2022-07-23T01:40:41;16.13;;;12.40;;
23258;SDS011;11798;51.528;7.240;2022-07-23T01:43:07;18.73;;;12.93;;
23258;SDS011;11798;51.528;7.240;2022-07-23T01:45:32;16.50;;;12.47;;
23258;SDS011;11798;51.528;7.240;2022-07-23T01:47:58;16.30;;;13.10;;
23258;SDS011;11798;51.528;7.240;2022-07-23T01:50:23;18.97;;;13.10;;
23258;SDS011;11798;51.528;7.240;2022-07-23T01:52:49;17.83;;;13.40;;
23258;SDS011;11798;51.528;7.240;2022-07-23T01:55:15;17.00;;;12.63;;
23258;SDS011;11798;51.528;7.240;2022-07-23T01:57:40;16.10;;;12.33;;
23258;SDS011;11798;51.528;7.240;2022-07-23T02:00:06;17.33;;;12.60;;
23258;SDS011;11798;51.528;7.240;2022-07-23T02:02:32;19.07;;;14.37;;
23258;SDS011;11798;51.528;7.240;2022-07-23T02:04:57;18.20;;;13.53;;
23258;SDS011;11798;51.528;7.240;2022-07-23T02:07:23;21.30;;;14.07;;
23258;SDS011;11798;51.528;7.240;2022-07-23T02:09:48;17.30;;;13.20;;
23258;SDS011;11798;51.528;7.240;2022-07-23T02:12:14;16.63;;;13.23;;
23258;SDS011;11798;51.528;7.240;2022-07-23T02:14:40;17.83;;;13.33;;
23258;SDS011;11798;51.528;7.240;2022-07-23T02:17:05;15.37;;;13.50;;
23258;SDS011;11798;51.528;7.240;2022-07-23T02:19:31;17.77;;;14.07;;
23258;SDS011;11798;51.528;7.240;2022-07-23T02:21:56;19.70;;;13.07;;
23258;SDS011;11798;51.528;7.240;2022-07-23T02:24:22;17.67;;;14.37;;
23258;SDS011;11798;51.528;7.240;2022-07-23T02:26:48;17.13;;;13.30;;
23258;SDS011;11798;51.528;7.240;2022-07-23T02:29:13;21.33;;;14.43;;
23258;SDS011;11798;51.528;7.240;2022-07-23T02:31:39;19.83;;;14.23;;
23258;SDS011;11798;51.528;7.240;2022-07-23T02:34:05;20.17;;;13.83;;
23258;SDS011;11798;51.528;7.240;2022-07-23T02:36:30;19.47;;;13.77;;
23258;SDS011;11798;51.528;7.240;2022-07-23T02:38:56;21.00;;;14.80;;
23258;SDS011;11798;51.528;7.240;2022-07-23T02:41:22;19.70;;;14.30;;
23258;SDS011;11798;51.528;7.240;2022-07-23T02:43:48;18.90;;;15.40;;
23258;SDS011;11798;51.528;7.240;2022-07-23T02:46:13;19.83;;;14.77;;
23258;SDS011;11798;51.528;7.240;2022-07-23T02:48:39;19.77;;;14.23;;
23258;SDS011;11798;51.528;7.240;2022-07-23T02:51:05;17.90;;;14.70;;
23258;SDS011;11798;51.528;7.240;2022-07-23T02:53:30;19.77;;;14.40;;
23258;SDS011;11798;51.528;7.240;2022-07-23T02:55:56;19.53;;;15.17;;
23258;SDS011;11798;51.528;7.240;2022-07-23T02:58:21;20.33;;;15.83;;
23258;SDS011;11798;51.528;7.240;2022-07-23T03:00:47;19.60;;;15.27;;
23258;SDS011;11798;51.528;7.240;2022-07-23T03:03:13;18.10;;;13.67;;
23258;SDS011;11798;51.528;7.240;2022-07-23T03:05:38;19.13;;;14.87;;
23258;SDS011;11798;51.528;7.240;2022-07-23T03:08:04;22.53;;;15.57;;
23258;SDS011;11798;51.528;7.240;2022-07-23T03:10:29;19.47;;;15.50;;
23258;SDS011;11798;51.528;7.240;2022-07-23T03:12:55;17.53;;;14.93;;
23258;SDS011;11798;51.528;7.240;2022-07-23T03:15:20;17.77;;;15.00;;
23258;SDS011;11798;51.528;7.240;2022-07-23T03:17:46;17.63;;;15.33;;
23258;SDS011;11798;51.528;7.240;2022-07-23T03:20:11;21.53;;;15.23;;
23258;SDS011;11798;51.528;7.240;2022-07-23T03:22:37;18.87;;;14.23;;
23258;SDS011;11798;51.528;7.240;2022-07-23T03:25:03;19.83;;;14.50;;
23258;SDS011;11798;51.528;7.240;2022-07-23T03:27:29;19.90;;;15.40;;
23258;SDS011;11798;51.528;7.240;2022-07-23T03:29:56;18.80;;;13.80;;
23258;SDS011;11798;51.528;7.240;2022-07-23T03:32:23;21.60;;;15.93;;
23258;SDS011;11798;51.528;7.240;2022-07-23T03:34:49;22.97;;;15.47;;
23258;SDS011;11798;51.528;7.240;2022-07-23T03:37:16;20.00;;;15.70;;
23258;SDS011;11798;51.528;7.240;2022-07-23T03:39:42;28.27;;;16.23;;
23258;SDS011;11798;51.528;7.240;2022-07-23T03:42:07;22.13;;;15.97;;
23258;SDS011;11798;51.528;7.240;2022-07-23T03:44:33;23.83;;;15.87;;
23258;SDS011;11798;51.528;7.240;2022-07-23T03:46:59;20.63;;;16.03;;
23258;SDS011;11798;51.528;7.240;2022-07-23T03:49:25;18.20;;;15.07;;
23258;SDS011;11798;51.528;7.240;2022-07-23T03:51:50;19.87;;;15.27;;
23258;SDS011;11798;51.528;7.240;2022-07-23T03:54:16;19.23;;;15.00;;
23258;SDS011;11798;51.528;7.240;2022-07-23T03:56:42;18.73;;;15.77;;
23258;SDS011;11798;51.528;7.240;2022-07-23T03:59:08;20.27;;;13.87;;
23258;SDS011;11798;51.528;7.240;2022-07-23T04:01:34;18.17;;;13.73;;
23258;SDS011;11798;51.528;7.240;2022-07-23T04:04:00;18.50;;;14.43;;
23258;SDS011;11798;51.528;7.240;2022-07-23T04:06:26;20.17;;;15.13;;
23258;SDS011;11798;51.528;7.240;2022-07-23T04:08:53;17.30;;;14.37;;
23258;SDS011;11798;51.528;7.240;2022-07-23T04:11:18;18.93;;;14.63;;
23258;SDS011;11798;51.528;7.240;2022-07-23T04:13:44;17.47;;;14.30;;
23258;SDS011;11798;51.528;7.240;2022-07-23T04:16:09;18.43;;;14.90;;
23258;SDS011;11798;51.528;7.240;2022-07-23T04:18:35;21.97;;;15.27;;
23258;SDS011;11798;51.528;7.240;2022-07-23T04:21:01;19.77;;;14.73;;
23258;SDS011;11798;51.528;7.240;2022-07-23T04:23:26;23.27;;;15.67;;
23258;SDS011;11798;51.528;7.240;2022-07-23T04:25:52;16.57;;;14.87;;
23258;SDS011;11798;51.528;7.240;2022-07-23T04:28:17;17.87;;;14.20;;
23258;SDS011;11798;51.528;7.240;2022-07-23T04:30:43;20.50;;;15.23;;
23258;SDS011;11798;51.528;7.240;2022-07-23T04:33:09;16.57;;;14.37;;
23258;SDS011;11798;51.528;7.240;2022-07-23T04:35:35;21.43;;;16.03;;
23258;SDS011;11798;51.528;7.240;2022-07-23T04:38:01;19.80;;;15.30;;
23258;SDS011;11798;51.528;7.240;2022-07-23T04:40:27;18.80;;;15.73;;
23258;SDS011;11798;51.528;7.240;2022-07-23T04:42:53;18.97;;;16.10;;
23258;SDS011;11798;51.528;7.240;2022-07-23T04:45:19;24.27;;;17.17;;
23258;SDS011;11798;51.528;7.240;2022-07-23T04:47:45;22.67;;;17.57;;
23258;SDS011;11798;51.528;7.240;2022-07-23T04:50:10;23.47;;;18.03;;
23258;SDS011;11798;51.528;7.240;2022-07-23T04:52:36;24.03;;;17.77;;
23258;SDS011;11798;51.528;7.240;2022-07-23T04:55:02;21.03;;;17.23;;
23258;SDS011;11798;51.528;7.240;2022-07-23T04:57:28;21.80;;;16.47;;
23258;SDS011;11798;51.528;7.240;2022-07-23T04:59:53;18.70;;;16.10;;
23258;SDS011;11798;51.528;7.240;2022-07-23T05:02:19;21.67;;;16.63;;
23258;SDS011;11798;51.528;7.240;2022-07-23T05:04:45;23.83;;;15.70;;
23258;SDS011;11798;51.528;7.240;2022-07-23T05:07:10;24.53;;;17.17;;
23258;SDS011;11798;51.528;7.240;2022-07-23T05:09:36;22.43;;;17.10;;
23258;SDS011;11798;51.528;7.240;2022-07-23T05:12:02;23.47;;;17.70;;
23258;SDS011;11798;51.528;7.240;2022-07-23T05:14:27;24.80;;;19.60;;
23258;SDS011;11798;51.528;7.240;2022-07-23T05:16:53;23.10;;;17.60;;
23258;SDS011;11798;51.528;7.240;2022-07-23T05:19:19;20.50;;;16.70;;
23258;SDS011;11798;51.528;7.240;2022-07-23T05:21:45;22.47;;;17.40;;
23258;SDS011;11798;51.528;7.240;2022-07-23T05:24:10;24.40;;;17.63;;
23258;SDS011;11798;51.528;7.240;2022-07-23T05:26:36;23.07;;;17.47;;
23258;SDS011;11798;51.528;7.240;2022-07-23T05:29:01;22.77;;;17.90;;
23258;SDS011;11798;51.528;7.240;2022-07-23T05:31:27;26.30;;;18.77;;
23258;SDS011;11798;51.528;7.240;2022-07-23T05:33:53;21.63;;;17.33;;
23258;SDS011;11798;51.528;7.240;2022-07-23T05:36:18;24.97;;;18.60;;
23258;SDS011;11798;51.528;7.240;2022-07-23T05:38:45;23.13;;;17.67;;
23258;SDS011;11798;51.528;7.240;2022-07-23T05:41:10;22.40;;;18.87;;
23258;SDS011;11798;51.528;7.240;2022-07-23T05:43:36;21.73;;;18.93;;
23258;SDS011;11798;51.528;7.240;2022-07-23T05:46:01;22.23;;;18.67;;
23258;SDS011;11798;51.528;7.240;2022-07-23T05:48:27;27.60;;;19.43;;
23258;SDS011;11798;51.528;7.240;2022-07-23T05:50:53;20.50;;;17.50;;
23258;SDS011;11798;51.528;7.240;2022-07-23T05:53:18;23.37;;;19.07;;
23258;SDS011;11798;51.528;7.240;2022-07-23T05:55:44;20.93;;;18.20;;
23258;SDS011;11798;51.528;7.240;2022-07-23T05:58:09;21.80;;;17.37;;
23258;SDS011;11798;51.528;7.240;2022-07-23T06:00:35;21.50;;;17.43;;
23258;SDS011;11798;51.528;7.240;2022-07-23T06:03:00;19.17;;;17.13;;
23258;SDS011;11798;51.528;7.240;2022-07-23T06:05:26;18.93;;;16.73;;
23258;SDS011;11798;51.528;7.240;2022-07-23T06:07:52;28.43;;;18.57;;
23258;SDS011;11798;51.528;7.240;2022-07-23T06:10:18;21.27;;;18.97;;
23258;SDS011;11798;51.528;7.240;2022-07-23T06:12:44;23.40;;;18.07;;
23258;SDS011;11798;51.528;7.240;2022-07-23T06:15:09;25.87;;;19.53;;
23258;SDS011;11798;51.528;7.240;2022-07-23T06:17:36;25.17;;;18.63;;
23258;SDS011;11798;51.528;7.240;2022-07-23T06:20:04;24.50;;;20.30;;
23258;SDS011;11798;51.528;7.240;2022-07-23T06:22:31;25.00;;;19.10;;
23258;SDS011;11798;51.528;7.240;2022-07-23T06:24:56;29.77;;;20.67;;
23258;SDS011;11798;51.528;7.240;2022-07-23T06:27:22;26.53;;;21.20;;
23258;SDS011;11798;51.528;7.240;2022-07-23T06:29:47;27.77;;;21.27;;
23258;SDS011;11798;51.528;7.240;2022-07-23T06:32:13;27.83;;;21.33;;
23258;SDS011;11798;51.528;7.240;2022-07-23T06:34:38;26.53;;;20.47;;
23258;SDS011;11798;51.528;7.240;2022-07-23T06:37:04;27.37;;;21.63;;
23258;SDS011;11798;51.528;7.240;2022-07-23T06:39:30;32.63;;;24.43;;
23258;SDS011;11798;51.528;7.240;2022-07-23T06:41:56;34.30;;;25.27;;
23258;SDS011;11798;51.528;7.240;2022-07-23T06:44:21;34.20;;;24.53;;
23258;SDS011;11798;51.528;7.240;2022-07-23T06:46:47;28.07;;;21.47;;
23258;SDS011;11798;51.528;7.240;2022-07-23T06:49:12;35.83;;;25.07;;
23258;SDS011;11798;51.528;7.240;2022-07-23T06:51:38;30.50;;;21.87;;
23258;SDS011;11798;51.528;7.240;2022-07-23T06:54:04;35.67;;;25.57;;
23258;SDS011;11798;51.528;7.240;2022-07-23T06:56:30;31.53;;;23.53;;
23258;SDS011;11798;51.528;7.240;2022-07-23T06:58:55;33.33;;;23.57;;
23258;SDS011;11798;51.528;7.240;2022-07-23T07:01:21;33.40;;;24.83;;
23258;SDS011;11798;51.528;7.240;2022-07-23T07:03:47;33.40;;;25.77;;
23258;SDS011;11798;51.528;7.240;2022-07-23T07:06:12;41.13;;;28.00;;
23258;SDS011;11798;51.528;7.240;2022-07-23T07:08:38;37.03;;;28.10;;
23258;SDS011;11798;51.528;7.240;2022-07-23T07:11:04;34.63;;;26.07;;
23258;SDS011;11798;51.528;7.240;2022-07-23T07:13:30;32.87;;;25.23;;
23258;SDS011;11798;51.528;7.240;2022-07-23T07:15:55;34.17;;;25.47;;
23258;SDS011;11798;51.528;7.240;2022-07-23T07:18:21;30.17;;;23.53;;
23258;SDS011;11798;51.528;7.240;2022-07-23T07:20:46;27.37;;;19.30;;
23258;SDS011;11798;51.528;7.240;2022-07-23T07:23:12;27.53;;;19.00;;
23258;SDS011;11798;51.528;7.240;2022-07-23T07:25:38;27.37;;;18.30;;
23258;SDS011;11798;51.528;7.240;2022-07-23T07:28:04;23.67;;;17.97;;
23258;SDS011;11798;51.528;7.240;2022-07-23T07:30:29;23.23;;;18.40;;
23258;SDS011;11798;51.528;7.240;2022-07-23T07:32:55;22.40;;;17.90;;
23258;SDS011;11798;51.528;7.240;2022-07-23T07:35:21;22.37;;;18.13;;
23258;SDS011;11798;51.528;7.240;2022-07-23T07:37:46;25.00;;;18.90;;
23258;SDS011;11798;51.528;7.240;2022-07-23T07:40:12;23.33;;;19.00;;
23258;SDS011;11798;51.528;7.240;2022-07-23T07:42:44;23.50;;;17.77;;
23258;SDS011;11798;51.528;7.240;2022-07-23T07:45:14;20.73;;;15.50;;
23258;SDS011;11798;51.528;7.240;2022-07-23T07:47:40;19.43;;;14.93;;
23258;SDS011;11798;51.528;7.240;2022-07-23T07:50:06;22.67;;;14.43;;
23258;SDS011;11798;51.528;7.240;2022-07-23T07:52:33;22.43;;;14.67;;
23258;SDS011;11798;51.528;7.240;2022-07-23T07:55:01;18.03;;;13.53;;
23258;SDS011;11798;51.528;7.240;2022-07-23T07:57:27;15.67;;;13.60;;
23258;SDS011;11798;51.528;7.240;2022-07-23T07:59:53;14.60;;;11.77;;
23258;SDS011;11798;51.528;7.240;2022-07-23T08:02:18;12.10;;;10.50;;
23258;SDS011;11798;51.528;7.240;2022-07-23T08:04:44;11.90;;;9.00;;
23258;SDS011;11798;51.528;7.240;2022-07-23T08:07:10;10.03;;;9.03;;
23258;SDS011;11798;51.528;7.240;2022-07-23T08:09:35;11.23;;;9.20;;
23258;SDS011;11798;51.528;7.240;2022-07-23T08:12:01;12.27;;;10.97;;
23258;SDS011;11798;51.528;7.240;2022-07-23T08:14:26;15.33;;;13.33;;
23258;SDS011;11798;51.528;7.240;2022-07-23T08:16:52;15.47;;;13.97;;
23258;SDS011;11798;51.528;7.240;2022-07-23T08:19:18;14.13;;;12.73;;
23258;SDS011;11798;51.528;7.240;2022-07-23T08:21:43;12.63;;;11.33;;
23258;SDS011;11798;51.528;7.240;2022-07-23T08:24:09;14.73;;;12.63;;
23258;SDS011;11798;51.528;7.240;2022-07-23T08:26:35;13.83;;;12.00;;
23258;SDS011;11798;51.528;7.240;2022-07-23T08:29:00;15.00;;;13.50;;
23258;SDS011;11798;51.528;7.240;2022-07-23T08:31:26;15.33;;;13.83;;
23258;SDS011;11798;51.528;7.240;2022-07-23T08:33:51;14.27;;;12.57;;
23258;SDS011;11798;51.528;7.240;2022-07-23T08:36:17;14.90;;;13.33;;
23258;SDS011;11798;51.528;7.240;2022-07-23T08:38:43;11.70;;;10.50;;
23258;SDS011;11798;51.528;7.240;2022-07-23T08:41:08;12.13;;;11.13;;
23258;SDS011;11798;51.528;7.240;2022-07-23T08:43:35;11.50;;;10.30;;
23258;SDS011;11798;51.528;7.240;2022-07-23T08:46:01;11.90;;;10.10;;
23258;SDS011;11798;51.528;7.240;2022-07-23T08:48:28;14.07;;;11.73;;
23258;SDS011;11798;51.528;7.240;2022-07-23T08:50:56;12.33;;;10.93;;
23258;SDS011;11798;51.528;7.240;2022-07-23T08:53:24;11.43;;;10.43;;
23258;SDS011;11798;51.528;7.240;2022-07-23T08:55:52;11.83;;;10.67;;
23258;SDS011;11798;51.528;7.240;2022-07-23T08:58:19;12.30;;;10.97;;
23258;SDS011;11798;51.528;7.240;2022-07-23T09:00:46;14.27;;;10.70;;
23258;SDS011;11798;51.528;7.240;2022-07-23T09:03:16;12.17;;;9.97;;
23258;SDS011;11798;51.528;7.240;2022-07-23T09:05:46;11.17;;;9.33;;
23258;SDS011;11798;51.528;7.240;2022-07-23T09:08:13;11.80;;;9.27;;
23258;SDS011;11798;51.528;7.240;2022-07-23T09:16:19;8.37;;;7.30;;
23258;SDS011;11798;51.528;7.240;2022-07-23T09:21:24;9.87;;;7.53;;
23258;SDS011;11798;51.528;7.240;2022-07-23T09:26:46;7.93;;;6.90;;
23258;SDS011;11798;51.528;7.240;2022-07-23T09:29:18;8.73;;;6.83;;
23258;SDS011;11798;51.528;7.240;2022-07-23T09:34:15;6.10;;;5.50;;
23258;SDS011;11798;51.528;7.240;2022-07-23T09:36:47;6.93;;;5.90;;
23258;SDS011;11798;51.528;7.240;2022-07-23T09:39:13;8.80;;;6.57;;
23258;SDS011;11798;51.528;7.240;2022-07-23T09:41:43;8.40;;;6.57;;
23258;SDS011;11798;51.528;7.240;2022-07-23T09:44:11;6.73;;;6.00;;
23258;SDS011;11798;51.528;7.240;2022-07-23T09:46:39;7.78;;;6.43;;
23258;SDS011;11798;51.528;7.240;2022-07-23T09:49:10;7.60;;;6.80;;
23258;SDS011;11798;51.528;7.240;2022-07-23T09:52:10;8.13;;;6.47;;
23258;SDS011;11798;51.528;7.240;2022-07-23T09:54:36;10.15;;;7.95;;
23258;SDS011;11798;51.528;7.240;2022-07-23T09:57:04;7.57;;;6.85;;
23258;SDS011;11798;51.528;7.240;2022-07-23T09:59:32;7.35;;;6.65;;
23258;SDS011;11798;51.528;7.240;2022-07-23T10:01:59;8.75;;;6.22;;
23258;SDS011;11798;51.528;7.240;2022-07-23T10:04:27;7.35;;;6.25;;
23258;SDS011;11798;51.528;7.240;2022-07-23T10:06:55;6.38;;;5.50;;
23258;SDS011;11798;51.528;7.240;2022-07-23T10:09:23;5.88;;;5.38;;
23258;SDS011;11798;51.528;7.240;2022-07-23T10:11:52;6.13;;;5.53;;
23258;SDS011;11798;51.528;7.240;2022-07-23T10:14:20;6.95;;;5.55;;
23258;SDS011;11798;51.528;7.240;2022-07-23T10:16:46;6.85;;;5.85;;
23258;SDS011;11798;51.528;7.240;2022-07-23T10:19:13;6.90;;;5.68;;
23258;SDS011;11798;51.528;7.240;2022-07-23T10:21:45;5.97;;;5.30;;
23258;SDS011;11798;51.528;7.240;2022-07-23T10:26:44;6.28;;;5.20;;
23258;SDS011;11798;51.528;7.240;2022-07-23T10:29:21;6.75;;;4.93;;
23258;SDS011;11798;51.528;7.240;2022-07-23T10:32:14;8.43;;;5.57;;
23258;SDS011;11798;51.528;7.240;2022-07-23T10:35:07;8.68;;;5.88;;
23258;SDS011;11798;51.528;7.240;2022-07-23T10:37:56;6.88;;;5.07;;
23258;SDS011;11798;51.528;7.240;2022-07-23T10:40:32;6.90;;;4.50;;
23258;SDS011;11798;51.528;7.240;2022-07-23T10:42:58;6.38;;;5.03;;
23258;SDS011;11798;51.528;7.240;2022-07-23T10:45:30;6.30;;;4.65;;
23258;SDS011;11798;51.528;7.240;2022-07-23T10:51:05;5.00;;;4.32;;
23258;SDS011;11798;51.528;7.240;2022-07-23T10:56:17;6.07;;;4.40;;
23258;SDS011;11798;51.528;7.240;2022-07-23T10:59:23;5.25;;;3.80;;
23258;SDS011;11798;51.528;7.240;2022-07-23T11:01:49;5.07;;;4.63;;
23258;SDS011;11798;51.528;7.240;2022-07-23T11:04:15;5.95;;;4.88;;
23258;SDS011;11798;51.528;7.240;2022-07-23T11:17:32;6.60;;;4.43;;
23258;SDS011;11798;51.528;7.240;2022-07-23T11:22:36;3.95;;;3.55;;
23258;SDS011;11798;51.528;7.240;2022-07-23T11:25:11;6.03;;;4.15;;
23258;SDS011;11798;51.528;7.240;2022-07-23T11:27:46;3.83;;;3.30;;
23258;SDS011;11798;51.528;7.240;2022-07-23T11:32:54;3.90;;;3.03;;
23258;SDS011;11798;51.528;7.240;2022-07-23T11:35:39;5.40;;;4.03;;
23258;SDS011;11798;51.528;7.240;2022-07-23T11:38:07;6.30;;;4.22;;
23258;SDS011;11798;51.528;7.240;2022-07-23T11:40:40;3.88;;;3.47;;
23258;SDS011;11798;51.528;7.240;2022-07-23T11:43:09;4.43;;;3.50;;
23258;SDS011;11798;51.528;7.240;2022-07-23T11:48:06;4.00;;;3.63;;
23258;SDS011;11798;51.528;7.240;2022-07-23T11:50:33;5.95;;;3.50;;
23258;SDS011;11798;51.528;7.240;2022-07-23T11:53:00;4.82;;;3.10;;
23258;SDS011;11798;51.528;7.240;2022-07-23T11:55:26;6.35;;;3.95;;
23258;SDS011;11798;51.528;7.240;2022-07-23T11:57:53;4.47;;;4.07;;
23258;SDS011;11798;51.528;7.240;2022-07-23T12:00:20;5.90;;;3.60;;
23258;SDS011;11798;51.528;7.240;2022-07-23T12:02:52;3.58;;;3.17;;
23258;SDS011;11798;51.528;7.240;2022-07-23T12:05:27;4.10;;;3.53;;
23258;SDS011;11798;51.528;7.240;2022-07-23T12:07:58;4.95;;;3.53;;
23258;SDS011;11798;51.528;7.240;2022-07-23T12:12:55;3.90;;;3.45;;
23258;SDS011;11798;51.528;7.240;2022-07-23T12:15:30;3.90;;;3.30;;
23258;SDS011;11798;51.528;7.240;2022-07-23T12:17:58;3.97;;;3.30;;
23258;SDS011;11798;51.528;7.240;2022-07-23T12:20:27;2.80;;;2.58;;
23258;SDS011;11798;51.528;7.240;2022-07-23T12:23:03;3.22;;;2.58;;
23258;SDS011;11798;51.528;7.240;2022-07-23T12:25:31;4.25;;;3.78;;
23258;SDS011;11798;51.528;7.240;2022-07-23T12:28:00;3.83;;;3.50;;
23258;SDS011;11798;51.528;7.240;2022-07-23T12:30:28;3.70;;;3.00;;
23258;SDS011;11798;51.528;7.240;2022-07-23T12:32:58;4.28;;;2.75;;
23258;SDS011;11798;51.528;7.240;2022-07-23T12:35:30;3.38;;;2.72;;
23258;SDS011;11798;51.528;7.240;2022-07-23T12:38:00;4.50;;;2.75;;
23258;SDS011;11798;51.528;7.240;2022-07-23T12:43:00;4.40;;;3.85;;
23258;SDS011;11798;51.528;7.240;2022-07-23T12:45:41;5.80;;;4.25;;
23258;SDS011;11798;51.528;7.240;2022-07-23T12:48:16;3.85;;;3.40;;
23258;SDS011;11798;51.528;7.240;2022-07-23T12:53:24;4.18;;;3.60;;
23258;SDS011;11798;51.528;7.240;2022-07-23T12:56:00;3.30;;;3.00;;
23258;SDS011;11798;51.528;7.240;2022-07-23T12:58:43;4.72;;;2.80;;
23258;SDS011;11798;51.528;7.240;2022-07-23T13:06:36;3.63;;;2.28;;
23258;SDS011;11798;51.528;7.240;2022-07-23T13:09:04;2.95;;;2.67;;
23258;SDS011;11798;51.528;7.240;2022-07-23T13:11:35;4.97;;;2.88;;
23258;SDS011;11798;51.528;7.240;2022-07-23T13:14:01;3.78;;;2.67;;
23258;SDS011;11798;51.528;7.240;2022-07-23T13:16:28;2.83;;;2.53;;
23258;SDS011;11798;51.528;7.240;2022-07-23T13:18:54;4.85;;;2.80;;
23258;SDS011;11798;51.528;7.240;2022-07-23T13:21:21;4.55;;;2.63;;
23258;SDS011;11798;51.528;7.240;2022-07-23T13:23:47;2.78;;;2.40;;
23258;SDS011;11798;51.528;7.240;2022-07-23T13:26:13;4.00;;;2.92;;
23258;SDS011;11798;51.528;7.240;2022-07-23T13:28:39;5.00;;;2.70;;
23258;SDS011;11798;51.528;7.240;2022-07-23T13:31:04;3.38;;;2.40;;
23258;SDS011;11798;51.528;7.240;2022-07-23T13:33:30;2.85;;;2.65;;
23258;SDS011;11798;51.528;7.240;2022-07-23T13:35:56;3.75;;;2.60;;
23258;SDS011;11798;51.528;7.240;2022-07-23T13:38:21;3.20;;;2.67;;
23258;SDS011;11798;51.528;7.240;2022-07-23T13:40:48;3.85;;;2.65;;
23258;SDS011;11798;51.528;7.240;2022-07-23T13:43:16;2.67;;;2.28;;
23258;SDS011;11798;51.528;7.240;2022-07-23T13:45:42;2.50;;;2.25;;
23258;SDS011;11798;51.528;7.240;2022-07-23T13:48:09;5.55;;;2.40;;
23258;SDS011;11798;51.528;7.240;2022-07-23T13:50:36;2.88;;;2.22;;
23258;SDS011;11798;51.528;7.240;2022-07-23T13:53:06;2.90;;;2.38;;
23258;SDS011;11798;51.528;7.240;2022-07-23T13:55:34;3.15;;;2.83;;
23258;SDS011;11798;51.528;7.240;2022-07-23T13:58:00;3.00;;;2.53;;
23258;SDS011;11798;51.528;7.240;2022-07-23T14:00:27;3.95;;;2.83;;
23258;SDS011;11798;51.528;7.240;2022-07-23T14:02:55;3.05;;;2.67;;
23258;SDS011;11798;51.528;7.240;2022-07-23T14:05:21;4.53;;;3.20;;
23258;SDS011;11798;51.528;7.240;2022-07-23T14:07:47;3.33;;;2.72;;
23258;SDS011;11798;51.528;7.240;2022-07-23T14:10:14;3.03;;;2.78;;
23258;SDS011;11798;51.528;7.240;2022-07-23T14:12:41;2.85;;;2.55;;
23258;SDS011;11798;51.528;7.240;2022-07-23T14:15:07;2.58;;;2.33;;
23258;SDS011;11798;51.528;7.240;2022-07-23T14:17:34;2.70;;;2.50;;
23258;SDS011;11798;51.528;7.240;2022-07-23T14:20:02;3.17;;;2.88;;
23258;SDS011;11798;51.528;7.240;2022-07-23T14:22:28;4.07;;;3.00;;
23258;SDS011;11798;51.528;7.240;2022-07-23T14:24:54;3.70;;;3.00;;
23258;SDS011;11798;51.528;7.240;2022-07-23T14:27:19;3.85;;;3.45;;
23258;SDS011;11798;51.528;7.240;2022-07-23T14:29:45;3.75;;;3.33;;
23258;SDS011;11798;51.528;7.240;2022-07-23T14:32:11;3.05;;;2.75;;
23258;SDS011;11798;51.528;7.240;2022-07-23T14:34:37;2.75;;;2.47;;
23258;SDS011;11798;51.528;7.240;2022-07-23T14:37:02;5.25;;;3.00;;
23258;SDS011;11798;51.528;7.240;2022-07-23T14:39:28;3.72;;;2.97;;
23258;SDS011;11798;51.528;7.240;2022-07-23T14:41:54;3.65;;;3.00;;
23258;SDS011;11798;51.528;7.240;2022-07-23T14:44:19;3.17;;;2.88;;
23258;SDS011;11798;51.528;7.240;2022-07-23T14:46:45;3.45;;;2.95;;
23258;SDS011;11798;51.528;7.240;2022-07-23T14:49:11;3.58;;;3.28;;
23258;SDS011;11798;51.528;7.240;2022-07-23T14:51:36;3.28;;;2.97;;
23258;SDS011;11798;51.528;7.240;2022-07-23T14:54:03;4.30;;;2.95;;
23258;SDS011;11798;51.528;7.240;2022-07-23T14:56:29;3.67;;;3.38;;
23258;SDS011;11798;51.528;7.240;2022-07-23T14:58:55;5.80;;;3.20;;
23258;SDS011;11798;51.528;7.240;2022-07-23T15:01:21;3.03;;;2.72;;
23258;SDS011;11798;51.528;7.240;2022-07-23T15:03:47;3.38;;;3.08;;
23258;SDS011;11798;51.528;7.240;2022-07-23T15:06:13;4.43;;;2.88;;
23258;SDS011;11798;51.528;7.240;2022-07-23T15:08:40;3.05;;;2.75;;
23258;SDS011;11798;51.528;7.240;2022-07-23T15:11:05;3.17;;;2.88;;
23258;SDS011;11798;51.528;7.240;2022-07-23T15:13:33;3.83;;;2.65;;
23258;SDS011;11798;51.528;7.240;2022-07-23T15:15:59;4.05;;;2.90;;
23258;SDS011;11798;51.528;7.240;2022-07-23T15:18:25;3.13;;;2.83;;
23258;SDS011;11798;51.528;7.240;2022-07-23T15:20:51;5.70;;;3.42;;
23258;SDS011;11798;51.528;7.240;2022-07-23T15:23:16;5.10;;;3.17;;